createdAt,value
2022-10-17T04:00:34.550Z,8.90
2022-10-17T04:11:39.406Z,6.90
2022-10-17T04:22:39.277Z,6.90
2022-10-17T04:33:39.156Z,7.20
2022-10-17T04:44:39.035Z,5.90
2022-10-17T04:55:38.904Z,6.10
2022-10-17T05:06:38.781Z,5.80
2022-10-17T05:17:38.646Z,6.60
2022-10-17T05:28:38.540Z,4.90
2022-10-17T05:39:38.398Z,4.20
2022-10-17T05:50:39.363Z,4.30
2022-10-17T06:01:38.209Z,4.10
2022-10-17T06:12:38.018Z,4.90
2022-10-17T06:23:37.947Z,3.70
2022-10-17T06:34:37.785Z,4.20
2022-10-17T06:45:37.641Z,3.80
2022-10-17T06:56:37.570Z,3.00
2022-10-17T07:07:40.125Z,4.10
2022-10-17T07:18:37.269Z,3.40
2022-10-17T07:29:37.144Z,3.20
2022-10-17T07:40:37.019Z,3.50
2022-10-17T07:51:37.109Z,3.00
2022-10-17T08:02:36.782Z,2.50
2022-10-17T08:13:36.653Z,2.80
2022-10-17T08:24:36.521Z,3.90
2022-10-17T08:35:36.394Z,2.90
2022-10-17T08:46:36.328Z,3.80
2022-10-17T08:57:37.157Z,2.40
2022-10-17T09:08:36.022Z,2.70
2022-10-17T09:19:35.905Z,2.20
2022-10-17T09:30:45.482Z,4.70
2022-10-17T09:41:51.009Z,3.60
2022-10-17T09:52:35.530Z,2.50
2022-10-17T10:03:35.397Z,3.50
2022-10-17T10:14:35.273Z,3.10
2022-10-17T10:25:35.153Z,3.60
2022-10-17T10:36:35.034Z,3.40
2022-10-17T10:47:34.932Z,3.00
2022-10-17T10:58:36.804Z,2.80
2022-10-17T11:09:34.692Z,3.00
2022-10-17T11:20:34.541Z,4.00
2022-10-17T11:31:34.426Z,3.10
2022-10-17T11:42:34.294Z,2.90
2022-10-17T11:53:35.184Z,3.10
2022-10-17T12:04:34.101Z,3.50
2022-10-17T12:15:33.907Z,3.00
2022-10-17T12:26:34.488Z,2.50
2022-10-17T12:37:33.661Z,2.80
2022-10-17T12:48:33.545Z,2.50
2022-10-17T12:59:33.415Z,2.60
2022-10-17T13:10:33.295Z,2.20
2022-10-17T13:21:33.166Z,2.50
2022-10-17T13:32:33.059Z,4.30
2022-10-17T13:43:32.937Z,3.70
2022-10-17T13:54:32.800Z,3.30
2022-10-17T14:05:33.669Z,3.10
2022-10-17T14:16:32.546Z,3.00
2022-10-17T14:27:32.831Z,2.50
2022-10-17T14:38:32.318Z,3.30
2022-10-17T14:49:32.181Z,3.40
2022-10-17T15:00:33.056Z,2.30
2022-10-17T15:11:31.926Z,3.20
2022-10-17T15:22:33.196Z,3.00
2022-10-17T15:33:31.680Z,3.90
2022-10-17T15:44:31.555Z,3.00
2022-10-17T15:55:31.459Z,3.30
2022-10-17T16:06:31.308Z,2.70
2022-10-17T16:17:31.449Z,3.00
2022-10-17T16:28:31.109Z,3.30
2022-10-17T16:39:30.946Z,3.50
2022-10-17T16:50:30.819Z,4.00
2022-10-17T17:01:30.688Z,3.50
2022-10-17T17:12:30.553Z,4.50
2022-10-17T17:23:30.427Z,4.50
2022-10-17T17:34:30.305Z,5.50
2022-10-17T17:45:30.191Z,4.00
2022-10-17T17:56:30.071Z,6.10
2022-10-17T18:07:29.934Z,5.40
2022-10-17T18:18:29.830Z,5.70
2022-10-17T18:29:29.694Z,4.60
2022-10-17T18:40:29.574Z,4.90
2022-10-17T18:51:29.457Z,5.50
2022-10-17T19:02:31.322Z,4.20
2022-10-17T19:13:29.197Z,5.80
2022-10-17T19:24:29.094Z,5.90
2022-10-17T19:35:28.944Z,5.70
2022-10-17T19:46:28.817Z,7.00
2022-10-17T19:57:28.714Z,7.00
2022-10-17T20:08:28.571Z,5.40
2022-10-17T20:19:28.446Z,5.80
2022-10-17T20:30:28.320Z,6.20
2022-10-17T20:41:29.217Z,5.90
2022-10-17T20:52:28.085Z,7.30
